sensor_id;sensor_type;location;lat;lon;timestamp;temperature;humidity
18408;DHT22;9330;52.210;21.174;2023-06-14T00:02:01;12.10;99.90
18408;DHT22;9330;52.210;21.174;2023-06-14T00:04:28;12.00;99.90
18408;DHT22;9330;52.210;21.174;2023-06-14T00:06:55;12.00;99.90
18408;DHT22;9330;52.210;21.174;2023-06-14T00:09:23;12.00;99.90
18408;DHT22;9330;52.210;21.174;2023-06-14T00:11:50;12.00;99.90
18408;DHT22;9330;52.210;21.174;2023-06-14T00:14:16;11.90;99.90
18408;DHT22;9330;52.210;21.174;2023-06-14T00:16:45;12.00;99.90
18408;DHT22;9330;52.210;21.174;2023-06-14T00:19:11;12.00;99.90
18408;DHT22;9330;52.210;21.174;2023-06-14T00:21:38;12.00;99.90
18408;DHT22;9330;52.210;21.174;2023-06-14T00:24:06;12.00;99.90
18408;DHT22;9330;52.210;21.174;2023-06-14T00:26:34;12.00;99.90
18408;DHT22;9330;52.210;21.174;2023-06-14T00:29:00;12.00;99.90
18408;DHT22;9330;52.210;21.174;2023-06-14T00:31:30;12.00;99.90
18408;DHT22;9330;52.210;21.174;2023-06-14T00:33:58;12.00;99.90
18408;DHT22;9330;52.210;21.174;2023-06-14T00:36:25;12.00;99.90
18408;DHT22;9330;52.210;21.174;2023-06-14T00:38:52;11.90;99.90
18408;DHT22;9330;52.210;21.174;2023-06-14T00:41:19;12.00;99.90
18408;DHT22;9330;52.210;21.174;2023-06-14T00:43:46;12.00;99.90
18408;DHT22;9330;52.210;21.174;2023-06-14T00:46:13;12.00;99.90
18408;DHT22;9330;52.210;21.174;2023-06-14T00:48:40;12.00;99.90
18408;DHT22;9330;52.210;21.174;2023-06-14T00:51:08;12.00;99.90
18408;DHT22;9330;52.210;21.174;2023-06-14T00:53:35;12.00;99.90
18408;DHT22;9330;52.210;21.174;2023-06-14T00:56:05;12.00;99.90
18408;DHT22;9330;52.210;21.174;2023-06-14T00:58:32;12.00;99.90
18408;DHT22;9330;52.210;21.174;2023-06-14T01:00:59;12.00;99.90
18408;DHT22;9330;52.210;21.174;2023-06-14T01:03:27;11.90;99.90
18408;DHT22;9330;52.210;21.174;2023-06-14T01:06:02;11.90;99.90
18408;DHT22;9330;52.210;21.174;2023-06-14T01:08:40;11.90;99.90
18408;DHT22;9330;52.210;21.174;2023-06-14T01:11:14;11.90;99.90
18408;DHT22;9330;52.210;21.174;2023-06-14T01:13:45;12.00;99.90
18408;DHT22;9330;52.210;21.174;2023-06-14T01:16:12;11.90;99.90
18408;DHT22;9330;52.210;21.174;2023-06-14T01:18:40;12.00;99.90
18408;DHT22;9330;52.210;21.174;2023-06-14T01:21:20;11.90;99.90
18408;DHT22;9330;52.210;21.174;2023-06-14T01:23:49;11.90;99.90
18408;DHT22;9330;52.210;21.174;2023-06-14T01:26:19;12.00;99.90
18408;DHT22;9330;52.210;21.174;2023-06-14T01:28:46;12.00;99.90
18408;DHT22;9330;52.210;21.174;2023-06-14T01:31:19;12.00;99.90
18408;DHT22;9330;52.210;21.174;2023-06-14T01:33:48;12.00;99.90
18408;DHT22;9330;52.210;21.174;2023-06-14T01:36:16;12.00;99.90
18408;DHT22;9330;52.210;21.174;2023-06-14T01:38:45;12.00;99.90
18408;DHT22;9330;52.210;21.174;2023-06-14T01:41:15;12.00;99.90
18408;DHT22;9330;52.210;21.174;2023-06-14T01:43:43;12.00;99.90
18408;DHT22;9330;52.210;21.174;2023-06-14T01:46:10;12.00;99.90
18408;DHT22;9330;52.210;21.174;2023-06-14T01:48:37;12.00;99.90
18408;DHT22;9330;52.210;21.174;2023-06-14T01:51:04;12.00;99.90
18408;DHT22;9330;52.210;21.174;2023-06-14T01:53:31;12.10;99.90
18408;DHT22;9330;52.210;21.174;2023-06-14T01:55:58;12.00;99.90
18408;DHT22;9330;52.210;21.174;2023-06-14T01:58:26;12.00;99.90
18408;DHT22;9330;52.210;21.174;2023-06-14T02:00:54;12.10;99.90
18408;DHT22;9330;52.210;21.174;2023-06-14T02:03:22;12.10;99.90
18408;DHT22;9330;52.210;21.174;2023-06-14T02:05:49;12.10;99.90
18408;DHT22;9330;52.210;21.174;2023-06-14T02:08:15;12.00;99.90
18408;DHT22;9330;52.210;21.174;2023-06-14T02:10:42;12.00;99.90
18408;DHT22;9330;52.210;21.174;2023-06-14T02:13:09;12.00;99.90
18408;DHT22;9330;52.210;21.174;2023-06-14T02:15:38;12.00;99.90
18408;DHT22;9330;52.210;21.174;2023-06-14T02:18:05;12.10;99.90
18408;DHT22;9330;52.210;21.174;2023-06-14T02:20:32;12.10;99.90
18408;DHT22;9330;52.210;21.174;2023-06-14T02:22:59;12.10;99.90
18408;DHT22;9330;52.210;21.174;2023-06-14T02:25:26;12.00;99.90
18408;DHT22;9330;52.210;21.174;2023-06-14T02:27:53;12.00;99.90
18408;DHT22;9330;52.210;21.174;2023-06-14T02:30:21;12.10;99.90
18408;DHT22;9330;52.210;21.174;2023-06-14T02:32:49;12.10;99.90
18408;DHT22;9330;52.210;21.174;2023-06-14T02:35:18;12.10;99.90
18408;DHT22;9330;52.210;21.174;2023-06-14T02:37:47;12.10;99.90
18408;DHT22;9330;52.210;21.174;2023-06-14T02:40:14;12.10;99.90
18408;DHT22;9330;52.210;21.174;2023-06-14T02:42:41;12.00;99.90
18408;DHT22;9330;52.210;21.174;2023-06-14T02:45:08;12.10;99.90
18408;DHT22;9330;52.210;21.174;2023-06-14T02:47:35;12.10;99.90
18408;DHT22;9330;52.210;21.174;2023-06-14T02:50:05;12.10;99.90
18408;DHT22;9330;52.210;21.174;2023-06-14T02:52:33;12.10;99.90
18408;DHT22;9330;52.210;21.174;2023-06-14T02:55:00;12.10;99.90
18408;DHT22;9330;52.210;21.174;2023-06-14T02:57:27;12.00;99.90
18408;DHT22;9330;52.210;21.174;2023-06-14T02:59:53;12.20;99.90
18408;DHT22;9330;52.210;21.174;2023-06-14T03:02:20;12.00;99.90
18408;DHT22;9330;52.210;21.174;2023-06-14T03:04:47;12.00;99.90
18408;DHT22;9330;52.210;21.174;2023-06-14T03:07:15;12.10;99.90
18408;DHT22;9330;52.210;21.174;2023-06-14T03:09:45;12.00;99.90
18408;DHT22;9330;52.210;21.174;2023-06-14T03:12:12;12.00;99.90
18408;DHT22;9330;52.210;21.174;2023-06-14T03:14:38;12.00;99.90
18408;DHT22;9330;52.210;21.174;2023-06-14T03:17:05;12.00;99.90
18408;DHT22;9330;52.210;21.174;2023-06-14T03:19:33;12.00;99.90
18408;DHT22;9330;52.210;21.174;2023-06-14T03:22:00;12.10;99.90
18408;DHT22;9330;52.210;21.174;2023-06-14T03:24:29;12.00;99.90
18408;DHT22;9330;52.210;21.174;2023-06-14T03:26:57;12.00;99.90
18408;DHT22;9330;52.210;21.174;2023-06-14T03:29:24;12.10;99.90
18408;DHT22;9330;52.210;21.174;2023-06-14T03:31:58;12.00;99.90
18408;DHT22;9330;52.210;21.174;2023-06-14T03:34:26;12.10;99.90
18408;DHT22;9330;52.210;21.174;2023-06-14T03:36:52;12.10;99.90
18408;DHT22;9330;52.210;21.174;2023-06-14T03:39:19;12.10;99.90
18408;DHT22;9330;52.210;21.174;2023-06-14T03:41:47;12.10;99.90
18408;DHT22;9330;52.210;21.174;2023-06-14T03:44:16;12.10;99.90
18408;DHT22;9330;52.210;21.174;2023-06-14T03:46:43;12.10;99.90
18408;DHT22;9330;52.210;21.174;2023-06-14T03:49:10;12.10;99.90
18408;DHT22;9330;52.210;21.174;2023-06-14T03:51:37;12.20;99.90
18408;DHT22;9330;52.210;21.174;2023-06-14T03:54:05;12.20;99.90
18408;DHT22;9330;52.210;21.174;2023-06-14T03:56:32;12.20;99.90
18408;DHT22;9330;52.210;21.174;2023-06-14T03:59:00;12.20;99.90
18408;DHT22;9330;52.210;21.174;2023-06-14T04:01:30;12.30;99.90
18408;DHT22;9330;52.210;21.174;2023-06-14T04:03:59;12.40;99.90
18408;DHT22;9330;52.210;21.174;2023-06-14T04:06:26;12.30;99.90
18408;DHT22;9330;52.210;21.174;2023-06-14T04:08:58;12.30;99.90
18408;DHT22;9330;52.210;21.174;2023-06-14T04:11:30;12.30;99.90
18408;DHT22;9330;52.210;21.174;2023-06-14T04:13:59;12.30;99.90
18408;DHT22;9330;52.210;21.174;2023-06-14T04:16:27;12.40;99.90
18408;DHT22;9330;52.210;21.174;2023-06-14T04:18:54;12.40;99.90
18408;DHT22;9330;52.210;21.174;2023-06-14T04:21:23;12.30;99.90
18408;DHT22;9330;52.210;21.174;2023-06-14T04:23:51;12.40;99.90
18408;DHT22;9330;52.210;21.174;2023-06-14T04:26:20;12.40;99.90
18408;DHT22;9330;52.210;21.174;2023-06-14T04:28:49;12.50;99.90
18408;DHT22;9330;52.210;21.174;2023-06-14T04:31:17;12.50;99.90
18408;DHT22;9330;52.210;21.174;2023-06-14T04:33:44;12.50;99.90
18408;DHT22;9330;52.210;21.174;2023-06-14T04:36:12;12.60;99.90
18408;DHT22;9330;52.210;21.174;2023-06-14T04:38:39;12.60;99.90
18408;DHT22;9330;52.210;21.174;2023-06-14T04:41:06;12.70;99.90
18408;DHT22;9330;52.210;21.174;2023-06-14T04:43:37;12.70;99.90
18408;DHT22;9330;52.210;21.174;2023-06-14T04:46:04;12.70;99.90
18408;DHT22;9330;52.210;21.174;2023-06-14T04:48:37;12.70;99.90
18408;DHT22;9330;52.210;21.174;2023-06-14T04:51:05;12.80;99.90
18408;DHT22;9330;52.210;21.174;2023-06-14T04:53:32;12.80;99.90
18408;DHT22;9330;52.210;21.174;2023-06-14T04:55:59;12.70;99.90
18408;DHT22;9330;52.210;21.174;2023-06-14T04:58:26;12.80;99.90
18408;DHT22;9330;52.210;21.174;2023-06-14T05:00:54;12.80;99.90
18408;DHT22;9330;52.210;21.174;2023-06-14T05:03:21;12.80;99.90
18408;DHT22;9330;52.210;21.174;2023-06-14T05:05:50;12.80;99.90
18408;DHT22;9330;52.210;21.174;2023-06-14T05:08:18;12.80;99.90
18408;DHT22;9330;52.210;21.174;2023-06-14T05:10:49;12.80;99.90
18408;DHT22;9330;52.210;21.174;2023-06-14T05:13:15;12.90;99.90
18408;DHT22;9330;52.210;21.174;2023-06-14T05:15:42;12.90;99.90
18408;DHT22;9330;52.210;21.174;2023-06-14T05:18:09;12.90;99.90
18408;DHT22;9330;52.210;21.174;2023-06-14T05:20:36;13.10;99.90
18408;DHT22;9330;52.210;21.174;2023-06-14T05:23:05;13.00;99.90
18408;DHT22;9330;52.210;21.174;2023-06-14T05:25:31;13.10;99.90
18408;DHT22;9330;52.210;21.174;2023-06-14T05:27:58;13.00;99.90
18408;DHT22;9330;52.210;21.174;2023-06-14T05:30:25;13.00;99.90
18408;DHT22;9330;52.210;21.174;2023-06-14T05:32:55;13.00;99.90
18408;DHT22;9330;52.210;21.174;2023-06-14T05:35:22;13.10;99.90
18408;DHT22;9330;52.210;21.174;2023-06-14T05:37:49;13.10;99.90
18408;DHT22;9330;52.210;21.174;2023-06-14T05:40:17;13.20;99.90
18408;DHT22;9330;52.210;21.174;2023-06-14T05:42:44;13.10;99.90
18408;DHT22;9330;52.210;21.174;2023-06-14T05:45:10;13.10;99.90
18408;DHT22;9330;52.210;21.174;2023-06-14T05:47:37;13.20;99.90
18408;DHT22;9330;52.210;21.174;2023-06-14T05:50:05;13.10;99.90
18408;DHT22;9330;52.210;21.174;2023-06-14T05:52:33;13.10;99.90
18408;DHT22;9330;52.210;21.174;2023-06-14T05:55:00;13.20;99.90
18408;DHT22;9330;52.210;21.174;2023-06-14T05:57:28;13.30;99.90
18408;DHT22;9330;52.210;21.174;2023-06-14T05:59:55;13.30;99.90
18408;DHT22;9330;52.210;21.174;2023-06-14T06:02:21;13.30;99.90
18408;DHT22;9330;52.210;21.174;2023-06-14T06:04:49;13.30;99.90
18408;DHT22;9330;52.210;21.174;2023-06-14T06:07:16;13.30;99.90
18408;DHT22;9330;52.210;21.174;2023-06-14T06:09:43;13.40;99.90
18408;DHT22;9330;52.210;21.174;2023-06-14T06:12:10;13.40;99.90
18408;DHT22;9330;52.210;21.174;2023-06-14T06:14:38;13.50;99.90
18408;DHT22;9330;52.210;21.174;2023-06-14T06:17:05;13.50;99.90
18408;DHT22;9330;52.210;21.174;2023-06-14T06:19:32;13.50;99.90
18408;DHT22;9330;52.210;21.174;2023-06-14T06:21:59;13.60;99.90
18408;DHT22;9330;52.210;21.174;2023-06-14T06:24:25;13.60;99.90
18408;DHT22;9330;52.210;21.174;2023-06-14T06:26:52;13.80;99.90
18408;DHT22;9330;52.210;21.174;2023-06-14T06:29:19;13.70;99.90
18408;DHT22;9330;52.210;21.174;2023-06-14T06:31:48;13.70;99.90
18408;DHT22;9330;52.210;21.174;2023-06-14T06:34:15;13.80;99.90
18408;DHT22;9330;52.210;21.174;2023-06-14T06:36:42;13.80;99.90
18408;DHT22;9330;52.210;21.174;2023-06-14T06:39:08;13.80;99.90
18408;DHT22;9330;52.210;21.174;2023-06-14T06:41:36;13.90;99.90
18408;DHT22;9330;52.210;21.174;2023-06-14T06:44:05;13.90;99.90
18408;DHT22;9330;52.210;21.174;2023-06-14T06:46:32;13.90;99.90
18408;DHT22;9330;52.210;21.174;2023-06-14T06:49:00;13.90;99.90
18408;DHT22;9330;52.210;21.174;2023-06-14T06:51:27;14.00;99.90
18408;DHT22;9330;52.210;21.174;2023-06-14T06:53:54;13.90;99.90
18408;DHT22;9330;52.210;21.174;2023-06-14T06:56:21;14.00;99.90
18408;DHT22;9330;52.210;21.174;2023-06-14T06:58:49;14.00;99.90
18408;DHT22;9330;52.210;21.174;2023-06-14T07:01:16;14.10;99.90
18408;DHT22;9330;52.210;21.174;2023-06-14T07:03:43;14.20;99.90
18408;DHT22;9330;52.210;21.174;2023-06-14T07:06:11;14.10;99.90
18408;DHT22;9330;52.210;21.174;2023-06-14T07:08:38;14.20;99.90
18408;DHT22;9330;52.210;21.174;2023-06-14T07:11:05;14.30;99.90
18408;DHT22;9330;52.210;21.174;2023-06-14T07:13:32;14.30;99.90
18408;DHT22;9330;52.210;21.174;2023-06-14T07:16:00;14.30;99.90
18408;DHT22;9330;52.210;21.174;2023-06-14T07:18:27;14.20;99.90
18408;DHT22;9330;52.210;21.174;2023-06-14T07:20:55;14.40;99.90
18408;DHT22;9330;52.210;21.174;2023-06-14T07:23:24;14.50;99.90
18408;DHT22;9330;52.210;21.174;2023-06-14T07:25:51;14.50;99.90
18408;DHT22;9330;52.210;21.174;2023-06-14T07:28:18;14.60;99.90
18408;DHT22;9330;52.210;21.174;2023-06-14T07:30:45;14.60;99.90
18408;DHT22;9330;52.210;21.174;2023-06-14T07:33:12;14.70;99.90
18408;DHT22;9330;52.210;21.174;2023-06-14T07:35:39;14.80;99.90
18408;DHT22;9330;52.210;21.174;2023-06-14T07:38:05;14.80;99.90
18408;DHT22;9330;52.210;21.174;2023-06-14T07:40:34;14.80;99.90
18408;DHT22;9330;52.210;21.174;2023-06-14T07:43:01;14.90;99.90
18408;DHT22;9330;52.210;21.174;2023-06-14T07:45:28;15.00;99.90
18408;DHT22;9330;52.210;21.174;2023-06-14T07:47:55;15.10;99.90
18408;DHT22;9330;52.210;21.174;2023-06-14T07:50:22;15.20;99.90
18408;DHT22;9330;52.210;21.174;2023-06-14T07:52:49;15.20;99.90
18408;DHT22;9330;52.210;21.174;2023-06-14T07:55:16;15.30;99.90
18408;DHT22;9330;52.210;21.174;2023-06-14T07:57:45;15.30;99.90
18408;DHT22;9330;52.210;21.174;2023-06-14T08:00:12;15.40;99.90
18408;DHT22;9330;52.210;21.174;2023-06-14T08:02:41;15.50;99.90
18408;DHT22;9330;52.210;21.174;2023-06-14T08:05:09;15.50;99.90
18408;DHT22;9330;52.210;21.174;2023-06-14T08:07:36;15.50;99.90
18408;DHT22;9330;52.210;21.174;2023-06-14T08:10:03;15.60;99.90
18408;DHT22;9330;52.210;21.174;2023-06-14T08:12:31;15.70;99.90
18408;DHT22;9330;52.210;21.174;2023-06-14T08:14:59;15.80;99.90
18408;DHT22;9330;52.210;21.174;2023-06-14T08:17:26;15.70;99.90
18408;DHT22;9330;52.210;21.174;2023-06-14T08:19:53;15.80;99.90
18408;DHT22;9330;52.210;21.174;2023-06-14T08:22:22;15.70;99.90
18408;DHT22;9330;52.210;21.174;2023-06-14T08:24:49;15.70;99.90
18408;DHT22;9330;52.210;21.174;2023-06-14T08:27:18;15.70;99.90
18408;DHT22;9330;52.210;21.174;2023-06-14T08:29:51;15.70;99.90
18408;DHT22;9330;52.210;21.174;2023-06-14T08:32:19;15.70;99.90
18408;DHT22;9330;52.210;21.174;2023-06-14T08:34:46;15.70;99.90
18408;DHT22;9330;52.210;21.174;2023-06-14T08:37:13;15.70;99.90
18408;DHT22;9330;52.210;21.174;2023-06-14T08:39:41;15.70;99.90
18408;DHT22;9330;52.210;21.174;2023-06-14T08:42:09;15.80;99.90
18408;DHT22;9330;52.210;21.174;2023-06-14T08:44:37;15.80;99.90
18408;DHT22;9330;52.210;21.174;2023-06-14T08:47:06;15.70;99.90
18408;DHT22;9330;52.210;21.174;2023-06-14T08:49:36;15.70;99.90
18408;DHT22;9330;52.210;21.174;2023-06-14T08:52:05;15.90;99.90
18408;DHT22;9330;52.210;21.174;2023-06-14T08:54:36;15.90;99.90
18408;DHT22;9330;52.210;21.174;2023-06-14T08:57:10;16.00;99.90
18408;DHT22;9330;52.210;21.174;2023-06-14T08:59:46;16.10;99.90
18408;DHT22;9330;52.210;21.174;2023-06-14T09:02:15;16.20;99.90
18408;DHT22;9330;52.210;21.174;2023-06-14T09:04:44;16.30;99.90
18408;DHT22;9330;52.210;21.174;2023-06-14T09:07:11;16.40;99.90
18408;DHT22;9330;52.210;21.174;2023-06-14T09:09:39;16.50;99.90
18408;DHT22;9330;52.210;21.174;2023-06-14T09:12:08;16.50;99.90
18408;DHT22;9330;52.210;21.174;2023-06-14T09:14:37;16.60;99.90
18408;DHT22;9330;52.210;21.174;2023-06-14T09:17:06;16.70;99.90
18408;DHT22;9330;52.210;21.174;2023-06-14T09:19:34;16.80;99.90
18408;DHT22;9330;52.210;21.174;2023-06-14T09:22:03;16.80;99.90
18408;DHT22;9330;52.210;21.174;2023-06-14T09:24:30;17.00;99.90
18408;DHT22;9330;52.210;21.174;2023-06-14T09:26:57;17.20;99.90
18408;DHT22;9330;52.210;21.174;2023-06-14T09:29:24;17.20;99.90
18408;DHT22;9330;52.210;21.174;2023-06-14T09:31:52;17.30;99.90
18408;DHT22;9330;52.210;21.174;2023-06-14T09:34:22;17.40;99.90
18408;DHT22;9330;52.210;21.174;2023-06-14T09:36:49;17.40;99.90
18408;DHT22;9330;52.210;21.174;2023-06-14T09:39:18;17.40;99.90
18408;DHT22;9330;52.210;21.174;2023-06-14T09:41:46;17.50;99.90
18408;DHT22;9330;52.210;21.174;2023-06-14T09:44:13;17.50;99.90
18408;DHT22;9330;52.210;21.174;2023-06-14T09:46:41;17.50;99.90
18408;DHT22;9330;52.210;21.174;2023-06-14T09:49:08;17.40;99.90
18408;DHT22;9330;52.210;21.174;2023-06-14T09:51:41;17.30;99.90
18408;DHT22;9330;52.210;21.174;2023-06-14T09:54:14;17.30;99.90
18408;DHT22;9330;52.210;21.174;2023-06-14T09:56:45;17.40;99.90
18408;DHT22;9330;52.210;21.174;2023-06-14T09:59:17;17.30;99.90
18408;DHT22;9330;52.210;21.174;2023-06-14T10:01:46;17.40;99.90
18408;DHT22;9330;52.210;21.174;2023-06-14T10:04:15;17.50;99.90
18408;DHT22;9330;52.210;21.174;2023-06-14T10:06:46;17.60;99.90
18408;DHT22;9330;52.210;21.174;2023-06-14T10:09:13;17.70;99.90
18408;DHT22;9330;52.210;21.174;2023-06-14T10:11:41;17.90;99.90
18408;DHT22;9330;52.210;21.174;2023-06-14T10:14:11;17.90;99.90
18408;DHT22;9330;52.210;21.174;2023-06-14T10:16:49;17.90;99.90
18408;DHT22;9330;52.210;21.174;2023-06-14T10:19:21;17.90;99.90
18408;DHT22;9330;52.210;21.174;2023-06-14T10:21:55;17.90;99.90
18408;DHT22;9330;52.210;21.174;2023-06-14T10:24:29;18.00;99.90
18408;DHT22;9330;52.210;21.174;2023-06-14T10:26:58;18.00;99.90
18408;DHT22;9330;52.210;21.174;2023-06-14T10:29:28;18.00;99.90
18408;DHT22;9330;52.210;21.174;2023-06-14T10:31:59;18.00;99.90
18408;DHT22;9330;52.210;21.174;2023-06-14T10:34:27;18.00;99.90
18408;DHT22;9330;52.210;21.174;2023-06-14T10:37:01;18.10;99.90
18408;DHT22;9330;52.210;21.174;2023-06-14T10:39:30;18.00;99.90
18408;DHT22;9330;52.210;21.174;2023-06-14T10:41:58;17.90;99.90
18408;DHT22;9330;52.210;21.174;2023-06-14T10:44:52;17.90;99.90
18408;DHT22;9330;52.210;21.174;2023-06-14T10:47:23;17.80;99.90
18408;DHT22;9330;52.210;21.174;2023-06-14T10:49:52;17.70;99.90
18408;DHT22;9330;52.210;21.174;2023-06-14T10:52:23;17.70;99.90
18408;DHT22;9330;52.210;21.174;2023-06-14T10:55:03;17.60;99.90
18408;DHT22;9330;52.210;21.174;2023-06-14T10:57:31;17.50;99.90
18408;DHT22;9330;52.210;21.174;2023-06-14T11:00:03;17.50;99.90
18408;DHT22;9330;52.210;21.174;2023-06-14T11:05:42;17.50;99.90
18408;DHT22;9330;52.210;21.174;2023-06-14T11:11:08;17.60;99.90
18408;DHT22;9330;52.210;21.174;2023-06-14T11:13:38;17.70;99.90
18408;DHT22;9330;52.210;21.174;2023-06-14T11:16:12;17.70;99.90
18408;DHT22;9330;52.210;21.174;2023-06-14T11:18:39;17.80;99.90
18408;DHT22;9330;52.210;21.174;2023-06-14T11:21:06;17.90;99.90
18408;DHT22;9330;52.210;21.174;2023-06-14T11:23:34;17.90;99.90
18408;DHT22;9330;52.210;21.174;2023-06-14T11:26:01;18.00;99.90
18408;DHT22;9330;52.210;21.174;2023-06-14T11:28:36;18.10;99.90
18408;DHT22;9330;52.210;21.174;2023-06-14T11:31:03;18.30;99.90
18408;DHT22;9330;52.210;21.174;2023-06-14T11:33:32;18.40;99.90
18408;DHT22;9330;52.210;21.174;2023-06-14T11:36:01;18.50;99.90
18408;DHT22;9330;52.210;21.174;2023-06-14T11:38:28;18.70;99.90
18408;DHT22;9330;52.210;21.174;2023-06-14T11:40:58;19.20;99.90
18408;DHT22;9330;52.210;21.174;2023-06-14T11:43:25;19.60;99.90
18408;DHT22;9330;52.210;21.174;2023-06-14T11:45:53;19.60;99.90
18408;DHT22;9330;52.210;21.174;2023-06-14T11:48:19;19.90;99.90
18408;DHT22;9330;52.210;21.174;2023-06-14T11:50:49;20.10;99.90
18408;DHT22;9330;52.210;21.174;2023-06-14T11:53:16;20.00;99.90
18408;DHT22;9330;52.210;21.174;2023-06-14T11:55:43;20.30;99.90
18408;DHT22;9330;52.210;21.174;2023-06-14T11:58:13;20.60;99.90
18408;DHT22;9330;52.210;21.174;2023-06-14T12:00:41;20.70;99.90
18408;DHT22;9330;52.210;21.174;2023-06-14T12:03:08;20.80;99.90
18408;DHT22;9330;52.210;21.174;2023-06-14T12:05:35;21.10;99.90
18408;DHT22;9330;52.210;21.174;2023-06-14T12:08:04;20.90;98.00
18408;DHT22;9330;52.210;21.174;2023-06-14T12:10:40;20.90;99.90
18408;DHT22;9330;52.210;21.174;2023-06-14T12:13:09;21.30;99.90
18408;DHT22;9330;52.210;21.174;2023-06-14T12:15:36;21.40;97.80
18408;DHT22;9330;52.210;21.174;2023-06-14T12:18:05;21.20;92.90
18408;DHT22;9330;52.210;21.174;2023-06-14T12:20:33;21.10;95.20
18408;DHT22;9330;52.210;21.174;2023-06-14T12:23:04;21.40;99.90
18408;DHT22;9330;52.210;21.174;2023-06-14T12:25:32;21.60;95.60
18408;DHT22;9330;52.210;21.174;2023-06-14T12:28:04;21.70;93.60
18408;DHT22;9330;52.210;21.174;2023-06-14T12:30:32;21.80;93.60
18408;DHT22;9330;52.210;21.174;2023-06-14T12:32:59;21.70;95.20
18408;DHT22;9330;52.210;21.174;2023-06-14T12:35:26;21.40;92.50
18408;DHT22;9330;52.210;21.174;2023-06-14T12:37:52;21.40;95.40
18408;DHT22;9330;52.210;21.174;2023-06-14T12:40:21;21.60;96.50
18408;DHT22;9330;52.210;21.174;2023-06-14T12:42:48;21.90;92.50
18408;DHT22;9330;52.210;21.174;2023-06-14T12:45:14;21.80;89.80
18408;DHT22;9330;52.210;21.174;2023-06-14T12:47:41;21.80;89.00
18408;DHT22;9330;52.210;21.174;2023-06-14T12:50:08;21.80;85.20
18408;DHT22;9330;52.210;21.174;2023-06-14T12:52:36;21.60;82.00
18408;DHT22;9330;52.210;21.174;2023-06-14T12:55:03;21.30;87.80
18408;DHT22;9330;52.210;21.174;2023-06-14T12:57:32;21.30;91.90
18408;DHT22;9330;52.210;21.174;2023-06-14T13:00:02;21.30;92.30
18408;DHT22;9330;52.210;21.174;2023-06-14T13:02:29;21.20;90.70
18408;DHT22;9330;52.210;21.174;2023-06-14T13:04:56;21.00;90.40
18408;DHT22;9330;52.210;21.174;2023-06-14T13:07:24;20.70;90.40
18408;DHT22;9330;52.210;21.174;2023-06-14T13:09:51;20.40;86.80
18408;DHT22;9330;52.210;21.174;2023-06-14T13:12:18;20.30;88.50
18408;DHT22;9330;52.210;21.174;2023-06-14T13:14:46;20.20;92.50
18408;DHT22;9330;52.210;21.174;2023-06-14T13:17:13;20.20;92.80
18408;DHT22;9330;52.210;21.174;2023-06-14T13:19:40;20.10;91.40
18408;DHT22;9330;52.210;21.174;2023-06-14T13:22:08;20.00;92.30
18408;DHT22;9330;52.210;21.174;2023-06-14T13:24:35;20.10;94.60
18408;DHT22;9330;52.210;21.174;2023-06-14T13:27:02;20.10;94.90
18408;DHT22;9330;52.210;21.174;2023-06-14T13:29:29;20.20;93.60
18408;DHT22;9330;52.210;21.174;2023-06-14T13:31:58;20.10;93.20
18408;DHT22;9330;52.210;21.174;2023-06-14T13:34:25;20.20;95.80
18408;DHT22;9330;52.210;21.174;2023-06-14T13:36:52;20.00;91.60
18408;DHT22;9330;52.210;21.174;2023-06-14T13:39:19;19.80;91.70
18408;DHT22;9330;52.210;21.174;2023-06-14T13:41:46;19.70;92.80
18408;DHT22;9330;52.210;21.174;2023-06-14T13:44:12;19.60;92.30
18408;DHT22;9330;52.210;21.174;2023-06-14T13:46:41;19.50;91.80
18408;DHT22;9330;52.210;21.174;2023-06-14T13:49:10;19.40;93.10
18408;DHT22;9330;52.210;21.174;2023-06-14T13:51:38;19.40;94.10
18408;DHT22;9330;52.210;21.174;2023-06-14T13:54:05;19.50;96.20
18408;DHT22;9330;52.210;21.174;2023-06-14T13:56:31;19.50;94.70
18408;DHT22;9330;52.210;21.174;2023-06-14T13:58:58;19.50;92.60
18408;DHT22;9330;52.210;21.174;2023-06-14T14:01:26;19.50;92.20
18408;DHT22;9330;52.210;21.174;2023-06-14T14:03:54;19.50;92.60
18408;DHT22;9330;52.210;21.174;2023-06-14T14:06:22;19.50;93.20
18408;DHT22;9330;52.210;21.174;2023-06-14T14:08:49;19.40;93.90
18408;DHT22;9330;52.210;21.174;2023-06-14T14:11:16;19.40;93.80
18408;DHT22;9330;52.210;21.174;2023-06-14T14:13:43;19.50;94.20
18408;DHT22;9330;52.210;21.174;2023-06-14T14:16:10;19.60;97.10
18408;DHT22;9330;52.210;21.174;2023-06-14T14:18:38;19.50;92.60
18408;DHT22;9330;52.210;21.174;2023-06-14T14:21:05;19.50;94.40
18408;DHT22;9330;52.210;21.174;2023-06-14T14:23:33;19.50;95.00
18408;DHT22;9330;52.210;21.174;2023-06-14T14:26:00;19.50;93.20
18408;DHT22;9330;52.210;21.174;2023-06-14T14:28:29;19.50;95.10
18408;DHT22;9330;52.210;21.174;2023-06-14T14:30:56;19.50;93.90
18408;DHT22;9330;52.210;21.174;2023-06-14T14:33:23;19.50;91.50
18408;DHT22;9330;52.210;21.174;2023-06-14T14:35:50;19.50;92.80
18408;DHT22;9330;52.210;21.174;2023-06-14T14:38:17;19.50;92.20
18408;DHT22;9330;52.210;21.174;2023-06-14T14:40:45;19.50;93.80
18408;DHT22;9330;52.210;21.174;2023-06-14T14:43:12;19.50;92.40
18408;DHT22;9330;52.210;21.174;2023-06-14T14:45:39;19.50;92.20
18408;DHT22;9330;52.210;21.174;2023-06-14T14:48:06;19.50;94.30
18408;DHT22;9330;52.210;21.174;2023-06-14T14:50:33;19.70;94.50
18408;DHT22;9330;52.210;21.174;2023-06-14T14:53:00;19.80;93.00
18408;DHT22;9330;52.210;21.174;2023-06-14T14:55:28;19.90;94.50
18408;DHT22;9330;52.210;21.174;2023-06-14T14:57:57;19.90;94.50
18408;DHT22;9330;52.210;21.174;2023-06-14T15:00:24;19.80;94.00
18408;DHT22;9330;52.210;21.174;2023-06-14T15:02:51;19.80;95.00
18408;DHT22;9330;52.210;21.174;2023-06-14T15:05:18;19.80;96.10
18408;DHT22;9330;52.210;21.174;2023-06-14T15:07:44;19.80;95.50
18408;DHT22;9330;52.210;21.174;2023-06-14T15:10:12;19.80;96.40
18408;DHT22;9330;52.210;21.174;2023-06-14T15:12:38;19.90;97.20
18408;DHT22;9330;52.210;21.174;2023-06-14T15:15:08;19.90;96.60
18408;DHT22;9330;52.210;21.174;2023-06-14T15:17:35;19.90;98.70
18408;DHT22;9330;52.210;21.174;2023-06-14T15:20:02;20.00;97.90
18408;DHT22;9330;52.210;21.174;2023-06-14T15:22:31;20.10;98.60
18408;DHT22;9330;52.210;21.174;2023-06-14T15:24:58;20.10;96.30
18408;DHT22;9330;52.210;21.174;2023-06-14T15:27:25;20.10;97.20
18408;DHT22;9330;52.210;21.174;2023-06-14T15:29:53;20.00;97.90
18408;DHT22;9330;52.210;21.174;2023-06-14T15:32:21;20.00;98.40
18408;DHT22;9330;52.210;21.174;2023-06-14T15:34:48;19.80;95.30
18408;DHT22;9330;52.210;21.174;2023-06-14T15:37:15;19.70;96.40
18408;DHT22;9330;52.210;21.174;2023-06-14T15:39:41;19.70;95.70
18408;DHT22;9330;52.210;21.174;2023-06-14T15:42:08;19.60;95.70